createdAt,value
2023-02-27T00:00:00.000Z,7.22
2023-02-27T00:15:00.000Z,7.27
2023-02-27T00:30:00.000Z,7.22
2023-02-27T00:45:00.000Z,7.6
2023-02-27T01:00:00.000Z,8.36
2023-02-27T01:15:00.000Z,10.32
2023-02-27T01:30:00.000Z,10.58
2023-02-27T01:45:00.000Z,11.54
2023-02-27T02:00:00.000Z,11.64
2023-02-27T02:15:00.000Z,12.36
2023-02-27T02:30:00.000Z,13.51
2023-02-27T02:45:00.000Z,13.14
2023-02-27T03:00:00.000Z,12.54
2023-02-27T03:15:00.000Z,12.59
2023-02-27T03:30:00.000Z,11.92
2023-02-27T03:45:00.000Z,10.56
2023-02-27T04:00:00.000Z,10.09
2023-02-27T04:15:00.000Z,11.48
2023-02-27T04:30:00.000Z,12.73
2023-02-27T04:45:00.000Z,12.96
2023-02-27T05:00:00.000Z,12.95
2023-02-27T05:15:00.000Z,12.71
2023-02-27T05:30:00.000Z,12.62
2023-02-27T05:45:00.000Z,13.26
2023-02-27T06:00:00.000Z,13.84
2023-02-27T06:15:00.000Z,15.55
2023-02-27T06:30:00.000Z,13.35
2023-02-27T06:45:00.000Z,12.35
2023-02-27T07:00:00.000Z,12.07
2023-02-27T07:15:00.000Z,11.48
2023-02-27T07:30:00.000Z,13.93
2023-02-27T07:45:00.000Z,10.96
2023-02-27T08:00:00.000Z,9.96
2023-02-27T08:15:00.000Z,9.22
2023-02-27T08:30:00.000Z,8.42
2023-02-27T08:45:00.000Z,7.92
2023-02-27T09:00:00.000Z,7.11
2023-02-27T09:15:00.000Z,7.6
2023-02-27T09:30:00.000Z,7.07
2023-02-27T09:45:00.000Z,6.96
2023-02-27T10:00:00.000Z,7.54
2023-02-27T10:15:00.000Z,7.87
2023-02-27T10:30:00.000Z,9.39
2023-02-27T10:45:00.000Z,9.54
2023-02-27T11:00:00.000Z,8.56
2023-02-27T11:15:00.000Z,7.92
2023-02-27T11:30:00.000Z,7.74
2023-02-27T11:45:00.000Z,8.32
2023-02-27T12:00:00.000Z,7.78
2023-02-27T12:15:00.000Z,7.82
2023-02-27T12:30:00.000Z,7.8
2023-02-27T12:45:00.000Z,9.51
2023-02-27T13:00:00.000Z,9.28
2023-02-27T13:15:00.000Z,10.86
2023-02-27T13:30:00.000Z,10.95
2023-02-27T13:45:00.000Z,10.6
2023-02-27T14:00:00.000Z,10.8
2023-02-27T14:15:00.000Z,11.05
2023-02-27T14:30:00.000Z,16.94
2023-02-27T14:45:00.000Z,12.54
2023-02-27T15:00:00.000Z,11.71
2023-02-27T15:15:00.000Z,14.87
2023-02-27T15:30:00.000Z,10.4
2023-02-27T15:45:00.000Z,12.18
2023-02-27T16:00:00.000Z,10.87
2023-02-27T16:15:00.000Z,10.32
2023-02-27T16:30:00.000Z,9.99
2023-02-27T16:45:00.000Z,10.06
2023-02-27T17:00:00.000Z,9.72
2023-02-27T17:15:00.000Z,8.45
2023-02-27T17:30:00.000Z,7.62
2023-02-27T17:45:00.000Z,7.02
2023-02-27T18:00:00.000Z,7.35
2023-02-27T18:15:00.000Z,7.61
2023-02-27T18:30:00.000Z,7.04
2023-02-27T18:45:00.000Z,7.19
2023-02-27T19:00:00.000Z,7.22
2023-02-27T19:15:00.000Z,7.12
2023-02-27T19:30:00.000Z,7.73
2023-02-27T19:45:00.000Z,8.32
2023-02-27T20:00:00.000Z,8.26
2023-02-27T20:15:00.000Z,9.62
2023-02-27T20:30:00.000Z,12.59
2023-02-27T20:45:00.000Z,10.6
2023-02-27T21:00:00.000Z,8.87
2023-02-27T21:15:00.000Z,8.82
2023-02-27T21:30:00.000Z,9.59
2023-02-27T21:45:00.000Z,8.82
2023-02-27T22:00:00.000Z,9.65
2023-02-27T22:15:00.000Z,9
2023-02-27T22:30:00.000Z,9.71
2023-02-27T22:45:00.000Z,10.12
2023-02-27T23:00:00.000Z,10.22
2023-02-27T23:15:00.000Z,10.29
2023-02-27T23:30:00.000Z,10.26
2023-02-27T23:45:00.000Z,10.39
